sensor_id;sensor_type;location;lat;lon;timestamp;pressure;altitude;pressure_sealevel;temperature;humidity
41636;BME280;27623;51.966;4.602;2024-03-08T00:00:26;63826.25;;;6.88;88.40
41636;BME280;27623;51.966;4.602;2024-03-08T00:02:52;63844.16;;;7.05;88.57
41636;BME280;27623;51.966;4.602;2024-03-08T00:05:19;63819.56;;;6.86;88.87
41636;BME280;27623;51.966;4.602;2024-03-08T00:07:45;63873.81;;;7.23;88.42
41636;BME280;27623;51.966;4.602;2024-03-08T00:10:14;63879.97;;;7.24;87.06
41636;BME280;27623;51.966;4.602;2024-03-08T00:12:44;63862.22;;;7.17;87.79
41636;BME280;27623;51.966;4.602;2024-03-08T00:15:16;63858.97;;;7.14;87.05
41636;BME280;27623;51.966;4.602;2024-03-08T00:17:43;63870.91;;;7.25;87.11
41636;BME280;27623;51.966;4.602;2024-03-08T00:20:11;63875.09;;;7.27;86.75
41636;BME280;27623;51.966;4.602;2024-03-08T00:22:37;63895.50;;;7.29;86.16
41636;BME280;27623;51.966;4.602;2024-03-08T00:25:04;63875.25;;;7.29;86.53
41636;BME280;27623;51.966;4.602;2024-03-08T00:27:29;63881.97;;;7.23;86.65
41636;BME280;27623;51.966;4.602;2024-03-08T00:29:58;63863.13;;;7.15;85.70
41636;BME280;27623;51.966;4.602;2024-03-08T00:32:24;63889.94;;;7.21;86.28
41636;BME280;27623;51.966;4.602;2024-03-08T00:34:50;63866.03;;;7.13;86.02
41636;BME280;27623;51.966;4.602;2024-03-08T00:37:17;63843.25;;;6.92;87.44
41636;BME280;27623;51.966;4.602;2024-03-08T00:39:43;63840.19;;;6.84;87.86
41636;BME280;27623;51.966;4.602;2024-03-08T00:42:08;63815.97;;;6.78;88.63
41636;BME280;27623;51.966;4.602;2024-03-08T00:44:33;63876.72;;;7.00;87.30
41636;BME280;27623;51.966;4.602;2024-03-08T00:46:59;63863.53;;;7.06;86.59
41636;BME280;27623;51.966;4.602;2024-03-08T00:49:24;63850.13;;;7.03;85.72
41636;BME280;27623;51.966;4.602;2024-03-08T00:51:50;63861.16;;;7.02;85.93
41636;BME280;27623;51.966;4.602;2024-03-08T00:54:18;63844.34;;;6.93;85.95
41636;BME280;27623;51.966;4.602;2024-03-08T00:56:46;63860.44;;;6.92;86.20
41636;BME280;27623;51.966;4.602;2024-03-08T00:59:11;63839.63;;;7.05;85.32
41636;BME280;27623;51.966;4.602;2024-03-08T01:01:39;63850.31;;;6.92;85.69
41636;BME280;27623;51.966;4.602;2024-03-08T01:04:08;63839.28;;;6.86;85.32
41636;BME280;27623;51.966;4.602;2024-03-08T01:06:34;63826.63;;;6.79;86.24
41636;BME280;27623;51.966;4.602;2024-03-08T01:08:59;63785.59;;;6.64;86.46
41636;BME280;27623;51.966;4.602;2024-03-08T01:11:25;63824.28;;;6.74;86.22
41636;BME280;27623;51.966;4.602;2024-03-08T01:13:50;63835.13;;;6.70;86.46
41636;BME280;27623;51.966;4.602;2024-03-08T01:16:16;63825.38;;;6.75;85.87
41636;BME280;27623;51.966;4.602;2024-03-08T01:18:46;63804.59;;;6.61;85.74
41636;BME280;27623;51.966;4.602;2024-03-08T01:21:12;63830.78;;;6.73;85.41
41636;BME280;27623;51.966;4.602;2024-03-08T01:23:38;63858.28;;;6.89;85.69
41636;BME280;27623;51.966;4.602;2024-03-08T01:26:03;63814.69;;;6.75;85.20
41636;BME280;27623;51.966;4.602;2024-03-08T01:28:30;63827.53;;;6.70;85.20
41636;BME280;27623;51.966;4.602;2024-03-08T01:30:55;63738.81;;;6.25;85.22
41636;BME280;27623;51.966;4.602;2024-03-08T01:33:25;63801.88;;;6.37;86.50
41636;BME280;27623;51.966;4.602;2024-03-08T01:35:51;63827.91;;;6.47;86.38
41636;BME280;27623;51.966;4.602;2024-03-08T01:38:17;63812.00;;;6.51;86.25
41636;BME280;27623;51.966;4.602;2024-03-08T01:40:43;63808.19;;;6.62;85.34
41636;BME280;27623;51.966;4.602;2024-03-08T01:43:18;63790.50;;;6.40;85.67
41636;BME280;27623;51.966;4.602;2024-03-08T01:45:44;63785.06;;;6.49;85.62
41636;BME280;27623;51.966;4.602;2024-03-08T01:48:09;63806.22;;;6.41;85.50
41636;BME280;27623;51.966;4.602;2024-03-08T01:50:35;63813.25;;;6.47;85.49
41636;BME280;27623;51.966;4.602;2024-03-08T01:53:03;63820.88;;;6.62;84.61
41636;BME280;27623;51.966;4.602;2024-03-08T01:55:29;63837.50;;;6.53;84.53
41636;BME280;27623;51.966;4.602;2024-03-08T01:57:55;63791.94;;;6.53;84.63
41636;BME280;27623;51.966;4.602;2024-03-08T02:00:21;63724.53;;;6.31;84.84
41636;BME280;27623;51.966;4.602;2024-03-08T02:02:49;63793.75;;;6.50;85.36
41636;BME280;27623;51.966;4.602;2024-03-08T02:05:15;63774.94;;;6.49;84.94
41636;BME280;27623;51.966;4.602;2024-03-08T02:07:41;63768.63;;;6.39;85.00
41636;BME280;27623;51.966;4.602;2024-03-08T02:10:09;63819.06;;;6.43;84.55
41636;BME280;27623;51.966;4.602;2024-03-08T02:12:35;63789.59;;;6.35;84.28
41636;BME280;27623;51.966;4.602;2024-03-08T02:15:03;63755.25;;;6.29;84.92
41636;BME280;27623;51.966;4.602;2024-03-08T02:17:29;63815.44;;;6.49;84.88
41636;BME280;27623;51.966;4.602;2024-03-08T02:19:55;63787.06;;;6.42;83.58
41636;BME280;27623;51.966;4.602;2024-03-08T02:22:21;63779.66;;;6.30;84.63
41636;BME280;27623;51.966;4.602;2024-03-08T02:24:47;63774.03;;;6.30;85.01
41636;BME280;27623;51.966;4.602;2024-03-08T02:27:13;63790.13;;;6.35;85.11
41636;BME280;27623;51.966;4.602;2024-03-08T02:29:39;63742.78;;;6.03;84.27
41636;BME280;27623;51.966;4.602;2024-03-08T02:32:06;63748.94;;;6.04;85.29
41636;BME280;27623;51.966;4.602;2024-03-08T02:34:31;63737.94;;;5.91;85.54
41636;BME280;27623;51.966;4.602;2024-03-08T02:36:57;63767.72;;;6.19;84.69
41636;BME280;27623;51.966;4.602;2024-03-08T02:39:24;63774.94;;;6.28;85.01
41636;BME280;27623;51.966;4.602;2024-03-08T02:41:53;63764.84;;;6.28;84.49
41636;BME280;27623;51.966;4.602;2024-03-08T02:44:18;63733.06;;;5.94;84.78
41636;BME280;27623;51.966;4.602;2024-03-08T02:46:46;63755.44;;;6.03;85.04
41636;BME280;27623;51.966;4.602;2024-03-08T02:49:12;63730.69;;;6.03;85.28
41636;BME280;27623;51.966;4.602;2024-03-08T02:51:37;63707.41;;;5.81;85.63
41636;BME280;27623;51.966;4.602;2024-03-08T02:54:04;63732.88;;;5.98;85.83
41636;BME280;27623;51.966;4.602;2024-03-08T02:56:29;63738.81;;;5.82;85.97
41636;BME280;27623;51.966;4.602;2024-03-08T02:58:55;63704.34;;;5.81;85.89
41636;BME280;27623;51.966;4.602;2024-03-08T03:01:20;63710.28;;;5.86;86.13
41636;BME280;27623;51.966;4.602;2024-03-08T03:03:47;63697.81;;;5.53;85.90
41636;BME280;27623;51.966;4.602;2024-03-08T03:06:13;63678.50;;;5.66;86.25
41636;BME280;27623;51.966;4.602;2024-03-08T03:08:38;63730.31;;;5.84;86.61
41636;BME280;27623;51.966;4.602;2024-03-08T03:11:04;63755.44;;;5.89;84.87
41636;BME280;27623;51.966;4.602;2024-03-08T03:13:29;63726.16;;;5.82;85.32
41636;BME280;27623;51.966;4.602;2024-03-08T03:15:54;63747.16;;;6.00;84.75
41636;BME280;27623;51.966;4.602;2024-03-08T03:18:23;63707.75;;;5.86;84.84
41636;BME280;27623;51.966;4.602;2024-03-08T03:20:49;63722.75;;;5.91;84.67
41636;BME280;27623;51.966;4.602;2024-03-08T03:23:14;63698.91;;;5.76;85.24
41636;BME280;27623;51.966;4.602;2024-03-08T03:25:40;63708.66;;;5.64;85.40
41636;BME280;27623;51.966;4.602;2024-03-08T03:28:06;63694.22;;;5.67;85.33
41636;BME280;27623;51.966;4.602;2024-03-08T03:30:33;63676.34;;;5.64;85.72
41636;BME280;27623;51.966;4.602;2024-03-08T03:33:02;63699.97;;;5.63;85.36
41636;BME280;27623;51.966;4.602;2024-03-08T03:35:32;63744.59;;;5.85;84.60
41636;BME280;27623;51.966;4.602;2024-03-08T03:37:57;63664.97;;;5.61;84.77
41636;BME280;27623;51.966;4.602;2024-03-08T03:40:29;63709.03;;;5.90;84.18
41636;BME280;27623;51.966;4.602;2024-03-08T03:42:55;63733.38;;;5.84;84.39
41636;BME280;27623;51.966;4.602;2024-03-08T03:45:21;63721.13;;;5.68;84.64
41636;BME280;27623;51.966;4.602;2024-03-08T03:47:47;63688.25;;;5.54;84.32
41636;BME280;27623;51.966;4.602;2024-03-08T03:50:12;63694.22;;;5.45;85.06
41636;BME280;27623;51.966;4.602;2024-03-08T03:52:37;63668.78;;;5.36;85.56
41636;BME280;27623;51.966;4.602;2024-03-08T03:55:07;63702.53;;;5.56;85.45
41636;BME280;27623;51.966;4.602;2024-03-08T03:57:33;63681.59;;;5.52;85.28
41636;BME280;27623;51.966;4.602;2024-03-08T03:59:58;63702.34;;;5.39;85.76
41636;BME280;27623;51.966;4.602;2024-03-08T04:02:25;63701.78;;;5.45;85.11
41636;BME280;27623;51.966;4.602;2024-03-08T04:04:54;63700.53;;;5.49;85.02
41636;BME280;27623;51.966;4.602;2024-03-08T04:07:20;63689.88;;;5.48;85.07
41636;BME280;27623;51.966;4.602;2024-03-08T04:09:46;63671.28;;;5.64;84.26
41636;BME280;27623;51.966;4.602;2024-03-08T04:12:11;63677.78;;;5.42;83.82
41636;BME280;27623;51.966;4.602;2024-03-08T04:14:38;63646.22;;;5.31;85.47
41636;BME280;27623;51.966;4.602;2024-03-08T04:17:05;63688.78;;;5.40;85.13
41636;BME280;27623;51.966;4.602;2024-03-08T04:19:34;63652.34;;;5.32;84.64
41636;BME280;27623;51.966;4.602;2024-03-08T04:22:02;63659.56;;;5.34;84.98
41636;BME280;27623;51.966;4.602;2024-03-08T04:24:28;63658.66;;;5.36;84.66
41636;BME280;27623;51.966;4.602;2024-03-08T04:26:53;63686.09;;;5.38;84.73
41636;BME280;27623;51.966;4.602;2024-03-08T04:29:19;63659.00;;;5.41;84.44
41636;BME280;27623;51.966;4.602;2024-03-08T04:31:44;63644.78;;;5.11;84.32
41636;BME280;27623;51.966;4.602;2024-03-08T04:34:10;63636.13;;;5.10;85.56
41636;BME280;27623;51.966;4.602;2024-03-08T04:36:36;63664.44;;;4.96;86.07
41636;BME280;27623;51.966;4.602;2024-03-08T04:39:01;63662.06;;;5.20;85.48
41636;BME280;27623;51.966;4.602;2024-03-08T04:41:27;63649.44;;;5.20;85.00
41636;BME280;27623;51.966;4.602;2024-03-08T04:43:55;63625.09;;;5.04;85.19
41636;BME280;27623;51.966;4.602;2024-03-08T04:46:23;63694.38;;;5.34;84.83
41636;BME280;27623;51.966;4.602;2024-03-08T04:48:48;63641.72;;;5.17;84.80
41636;BME280;27623;51.966;4.602;2024-03-08T04:51:16;63683.38;;;5.21;84.75
41636;BME280;27623;51.966;4.602;2024-03-08T04:53:42;63673.47;;;5.38;84.30
41636;BME280;27623;51.966;4.602;2024-03-08T04:56:07;63670.03;;;5.39;83.77
41636;BME280;27623;51.966;4.602;2024-03-08T04:58:35;63658.66;;;5.43;83.49
41636;BME280;27623;51.966;4.602;2024-03-08T05:01:01;63677.25;;;5.34;83.63
41636;BME280;27623;51.966;4.602;2024-03-08T05:03:27;63670.75;;;5.21;83.26
41636;BME280;27623;51.966;4.602;2024-03-08T05:05:52;63677.25;;;5.13;83.40
41636;BME280;27623;51.966;4.602;2024-03-08T05:08:18;63635.03;;;5.09;84.16
41636;BME280;27623;51.966;4.602;2024-03-08T05:10:44;63633.06;;;5.16;84.07
41636;BME280;27623;51.966;4.602;2024-03-08T05:13:10;63637.19;;;4.90;84.16
41636;BME280;27623;51.966;4.602;2024-03-08T05:15:35;63611.41;;;4.96;84.41
41636;BME280;27623;51.966;4.602;2024-03-08T05:18:01;63651.09;;;5.14;84.44
41636;BME280;27623;51.966;4.602;2024-03-08T05:20:27;63654.84;;;5.04;83.99
41636;BME280;27623;51.966;4.602;2024-03-08T05:22:52;63624.75;;;5.13;84.36
41636;BME280;27623;51.966;4.602;2024-03-08T05:25:18;63632.31;;;4.99;83.81
41636;BME280;27623;51.966;4.602;2024-03-08T05:27:43;63617.88;;;4.88;84.69
41636;BME280;27623;51.966;4.602;2024-03-08T05:30:11;63673.28;;;5.14;84.11
41636;BME280;27623;51.966;4.602;2024-03-08T05:32:41;63656.31;;;4.96;84.52
41636;BME280;27623;51.966;4.602;2024-03-08T05:35:10;63633.75;;;4.84;84.70
41636;BME280;27623;51.966;4.602;2024-03-08T05:37:41;63659.38;;;5.03;84.09
41636;BME280;27623;51.966;4.602;2024-03-08T05:40:08;63642.06;;;5.15;83.16
41636;BME280;27623;51.966;4.602;2024-03-08T05:42:36;63655.59;;;5.14;83.41
41636;BME280;27623;51.966;4.602;2024-03-08T05:45:03;63578.59;;;4.96;83.78
41636;BME280;27623;51.966;4.602;2024-03-08T05:47:29;63625.63;;;4.83;84.12
41636;BME280;27623;51.966;4.602;2024-03-08T05:49:54;63635.75;;;4.91;84.21
41636;BME280;27623;51.966;4.602;2024-03-08T05:52:20;63607.25;;;4.95;84.21
41636;BME280;27623;51.966;4.602;2024-03-08T05:54:47;63624.91;;;4.80;84.21
41636;BME280;27623;51.966;4.602;2024-03-08T05:57:13;63636.81;;;4.84;84.77
41636;BME280;27623;51.966;4.602;2024-03-08T05:59:39;63636.09;;;4.81;84.80
41636;BME280;27623;51.966;4.602;2024-03-08T06:02:05;63598.41;;;4.84;84.15
41636;BME280;27623;51.966;4.602;2024-03-08T06:04:30;63628.53;;;4.89;84.51
41636;BME280;27623;51.966;4.602;2024-03-08T06:06:56;63633.59;;;4.96;84.54
41636;BME280;27623;51.966;4.602;2024-03-08T06:09:23;63586.34;;;4.77;84.40
41636;BME280;27623;51.966;4.602;2024-03-08T06:11:54;63583.28;;;4.70;84.74
41636;BME280;27623;51.966;4.602;2024-03-08T06:14:20;63611.94;;;4.97;84.53
41636;BME280;27623;51.966;4.602;2024-03-08T06:16:46;63637.91;;;4.93;84.00
41636;BME280;27623;51.966;4.602;2024-03-08T06:19:12;63593.53;;;4.79;84.19
41636;BME280;27623;51.966;4.602;2024-03-08T06:21:38;63576.63;;;4.75;84.78
41636;BME280;27623;51.966;4.602;2024-03-08T06:24:05;63614.47;;;4.75;84.53
41636;BME280;27623;51.966;4.602;2024-03-08T06:26:31;63575.53;;;4.74;84.84
41636;BME280;27623;51.966;4.602;2024-03-08T06:28:57;63639.16;;;4.89;84.99
41636;BME280;27623;51.966;4.602;2024-03-08T06:31:23;63633.75;;;4.91;84.28
41636;BME280;27623;51.966;4.602;2024-03-08T06:33:48;63631.75;;;4.84;84.22
41636;BME280;27623;51.966;4.602;2024-03-08T06:36:19;63640.44;;;5.00;83.98
41636;BME280;27623;51.966;4.602;2024-03-08T06:38:47;63622.22;;;4.85;84.11
41636;BME280;27623;51.966;4.602;2024-03-08T06:41:12;63637.75;;;4.97;84.28
41636;BME280;27623;51.966;4.602;2024-03-08T06:43:44;63652.34;;;4.97;84.05
41636;BME280;27623;51.966;4.602;2024-03-08T06:46:10;63570.81;;;4.58;84.88
41636;BME280;27623;51.966;4.602;2024-03-08T06:48:38;63580.38;;;4.79;85.00
41636;BME280;27623;51.966;4.602;2024-03-08T06:51:04;63587.97;;;4.72;85.11
41636;BME280;27623;51.966;4.602;2024-03-08T06:53:30;63594.81;;;4.83;85.42
41636;BME280;27623;51.966;4.602;2024-03-08T06:55:56;63628.00;;;4.95;84.77
41636;BME280;27623;51.966;4.602;2024-03-08T06:58:22;63603.47;;;4.84;85.55
41636;BME280;27623;51.966;4.602;2024-03-08T07:00:48;63614.28;;;4.73;84.92
41636;BME280;27623;51.966;4.602;2024-03-08T07:03:17;63616.81;;;4.87;85.08
41636;BME280;27623;51.966;4.602;2024-03-08T07:05:42;63636.47;;;4.94;84.52
41636;BME280;27623;51.966;4.602;2024-03-08T07:08:08;63617.53;;;4.97;84.93
41636;BME280;27623;51.966;4.602;2024-03-08T07:10:33;63634.47;;;5.01;85.11
41636;BME280;27623;51.966;4.602;2024-03-08T07:13:00;63600.03;;;4.93;84.70
41636;BME280;27623;51.966;4.602;2024-03-08T07:15:27;63629.09;;;4.96;84.99
41636;BME280;27623;51.966;4.602;2024-03-08T07:17:54;63606.53;;;4.84;84.74
41636;BME280;27623;51.966;4.602;2024-03-08T07:20:19;63605.81;;;4.67;85.80
41636;BME280;27623;51.966;4.602;2024-03-08T07:22:46;63609.22;;;4.66;86.69
41636;BME280;27623;51.966;4.602;2024-03-08T07:25:18;63562.72;;;4.36;87.24
41636;BME280;27623;51.966;4.602;2024-03-08T07:27:43;63553.34;;;4.82;87.69
41636;BME280;27623;51.966;4.602;2024-03-08T07:30:09;63604.91;;;4.83;86.86
41636;BME280;27623;51.966;4.602;2024-03-08T07:32:35;63626.38;;;4.94;86.04
41636;BME280;27623;51.966;4.602;2024-03-08T07:35:01;63641.34;;;4.98;86.82
41636;BME280;27623;51.966;4.602;2024-03-08T07:37:27;63597.16;;;4.88;86.29
41636;BME280;27623;51.966;4.602;2024-03-08T07:39:52;63619.16;;;4.99;85.70
41636;BME280;27623;51.966;4.602;2024-03-08T07:42:18;63633.41;;;5.07;86.39
41636;BME280;27623;51.966;4.602;2024-03-08T07:44:43;63636.66;;;5.17;85.14
41636;BME280;27623;51.966;4.602;2024-03-08T07:47:11;63682.66;;;5.32;84.73
41636;BME280;27623;51.966;4.602;2024-03-08T07:49:37;63675.28;;;5.35;84.67
41636;BME280;27623;51.966;4.602;2024-03-08T07:52:03;63674.00;;;5.38;85.06
41636;BME280;27623;51.966;4.602;2024-03-08T07:54:30;63655.41;;;5.33;84.58
41636;BME280;27623;51.966;4.602;2024-03-08T07:56:55;63666.97;;;5.17;85.48
41636;BME280;27623;51.966;4.602;2024-03-08T07:59:21;63655.41;;;5.26;85.92
41636;BME280;27623;51.966;4.602;2024-03-08T08:01:46;63642.25;;;5.11;85.30
41636;BME280;27623;51.966;4.602;2024-03-08T08:04:12;63639.19;;;5.10;85.97
41636;BME280;27623;51.966;4.602;2024-03-08T08:06:41;63684.28;;;5.34;85.66
41636;BME280;27623;51.966;4.602;2024-03-08T08:09:09;63663.00;;;5.26;85.30
41636;BME280;27623;51.966;4.602;2024-03-08T08:11:41;63671.28;;;5.29;85.34
41636;BME280;27623;51.966;4.602;2024-03-08T08:14:09;63695.84;;;5.40;85.97
41636;BME280;27623;51.966;4.602;2024-03-08T08:16:36;63643.13;;;5.52;85.06
41636;BME280;27623;51.966;4.602;2024-03-08T08:19:07;63726.53;;;5.52;85.47
41636;BME280;27623;51.966;4.602;2024-03-08T08:21:36;63692.41;;;5.56;85.45
41636;BME280;27623;51.966;4.602;2024-03-08T08:24:05;63712.09;;;5.69;84.85
41636;BME280;27623;51.966;4.602;2024-03-08T08:26:31;63674.91;;;5.58;83.65
41636;BME280;27623;51.966;4.602;2024-03-08T08:28:58;63682.13;;;5.46;84.33
41636;BME280;27623;51.966;4.602;2024-03-08T08:31:24;63677.06;;;5.53;84.93
41636;BME280;27623;51.966;4.602;2024-03-08T08:33:52;63705.94;;;5.68;85.29
41636;BME280;27623;51.966;4.602;2024-03-08T08:36:24;63735.72;;;5.82;84.68
41636;BME280;27623;51.966;4.602;2024-03-08T08:38:49;63713.34;;;5.80;83.40
41636;BME280;27623;51.966;4.602;2024-03-08T08:41:15;63741.38;;;5.97;83.90
41636;BME280;27623;51.966;4.602;2024-03-08T08:43:43;63731.41;;;5.85;82.68
41636;BME280;27623;51.966;4.602;2024-03-08T08:46:10;63714.44;;;5.95;83.03
41636;BME280;27623;51.966;4.602;2024-03-08T08:48:39;63753.28;;;6.08;82.64
41636;BME280;27623;51.966;4.602;2024-03-08T08:51:09;63751.28;;;6.08;83.12
41636;BME280;27623;51.966;4.602;2024-03-08T08:53:38;63756.91;;;6.23;83.21
41636;BME280;27623;51.966;4.602;2024-03-08T08:56:04;63736.66;;;6.16;83.23
41636;BME280;27623;51.966;4.602;2024-03-08T08:58:29;63754.72;;;6.35;81.73
41636;BME280;27623;51.966;4.602;2024-03-08T09:00:55;63798.63;;;6.34;81.57
41636;BME280;27623;51.966;4.602;2024-03-08T09:03:20;63787.78;;;6.31;82.63
41636;BME280;27623;51.966;4.602;2024-03-08T09:05:48;63769.16;;;6.32;82.25
41636;BME280;27623;51.966;4.602;2024-03-08T09:08:13;63788.16;;;6.36;81.85
41636;BME280;27623;51.966;4.602;2024-03-08T09:10:42;63782.72;;;6.31;81.14
41636;BME280;27623;51.966;4.602;2024-03-08T09:13:08;63823.75;;;6.52;80.81
41636;BME280;27623;51.966;4.602;2024-03-08T09:15:35;63808.53;;;6.74;80.35
41636;BME280;27623;51.966;4.602;2024-03-08T09:18:01;63820.31;;;6.75;79.58
41636;BME280;27623;51.966;4.602;2024-03-08T09:20:27;63816.69;;;6.67;79.33
41636;BME280;27623;51.966;4.602;2024-03-08T09:22:53;63826.81;;;6.74;79.86
41636;BME280;27623;51.966;4.602;2024-03-08T09:25:19;63796.44;;;6.67;79.60
41636;BME280;27623;51.966;4.602;2024-03-08T09:27:44;63832.03;;;6.91;79.42
41636;BME280;27623;51.966;4.602;2024-03-08T09:30:11;63830.22;;;6.87;77.78
41636;BME280;27623;51.966;4.602;2024-03-08T09:32:38;63877.78;;;7.08;78.68
41636;BME280;27623;51.966;4.602;2024-03-08T09:35:04;63864.41;;;7.26;79.38
41636;BME280;27623;51.966;4.602;2024-03-08T09:37:32;63894.97;;;7.29;76.64
41636;BME280;27623;51.966;4.602;2024-03-08T09:39:59;63889.00;;;7.30;76.59
41636;BME280;27623;51.966;4.602;2024-03-08T09:42:24;63910.34;;;7.38;77.19
41636;BME280;27623;51.966;4.602;2024-03-08T09:44:50;63927.72;;;7.62;76.61
41636;BME280;27623;51.966;4.602;2024-03-08T09:47:17;63902.56;;;7.57;74.40
41636;BME280;27623;51.966;4.602;2024-03-08T09:49:43;63940.41;;;7.69;74.75
41636;BME280;27623;51.966;4.602;2024-03-08T09:52:09;63948.50;;;7.90;75.02
41636;BME280;27623;51.966;4.602;2024-03-08T09:54:35;63957.56;;;8.04;74.56
41636;BME280;27623;51.966;4.602;2024-03-08T09:57:06;63991.25;;;8.07;74.49
41636;BME280;27623;51.966;4.602;2024-03-08T09:59:33;63990.34;;;8.15;72.77
41636;BME280;27623;51.966;4.602;2024-03-08T10:02:01;64002.47;;;8.29;72.32
41636;BME280;27623;51.966;4.602;2024-03-08T10:04:29;64014.44;;;8.40;72.38
41636;BME280;27623;51.966;4.602;2024-03-08T10:06:58;63996.47;;;8.52;71.68
41636;BME280;27623;51.966;4.602;2024-03-08T10:09:24;64045.06;;;8.57;71.34
41636;BME280;27623;51.966;4.602;2024-03-08T10:12:01;64060.81;;;8.72;71.82
41636;BME280;27623;51.966;4.602;2024-03-08T10:14:27;64066.06;;;8.88;71.45
41636;BME280;27623;51.966;4.602;2024-03-08T10:16:53;64084.16;;;9.01;70.67
41636;BME280;27623;51.966;4.602;2024-03-08T10:19:19;64099.22;;;9.12;70.71
41636;BME280;27623;51.966;4.602;2024-03-08T10:21:51;64076.13;;;9.17;68.86
41636;BME280;27623;51.966;4.602;2024-03-08T10:24:22;64124.00;;;9.54;68.81
41636;BME280;27623;51.966;4.602;2024-03-08T10:26:52;64129.66;;;9.48;67.96
41636;BME280;27623;51.966;4.602;2024-03-08T10:29:18;64174.09;;;9.73;67.67
41636;BME280;27623;51.966;4.602;2024-03-08T10:31:43;64163.91;;;9.80;67.53
41636;BME280;27623;51.966;4.602;2024-03-08T10:34:10;64181.50;;;9.91;66.52
41636;BME280;27623;51.966;4.602;2024-03-08T10:36:36;64196.91;;;10.01;65.25
41636;BME280;27623;51.966;4.602;2024-03-08T10:39:22;64220.34;;;10.16;64.77
41636;BME280;27623;51.966;4.602;2024-03-08T10:41:56;64208.00;;;9.99;65.32
41636;BME280;27623;51.966;4.602;2024-03-08T10:47:01;64248.34;;;10.30;63.64
41636;BME280;27623;51.966;4.602;2024-03-08T10:52:31;64250.22;;;10.72;62.90
41636;BME280;27623;51.966;4.602;2024-03-08T10:54:57;64300.59;;;10.86;61.98
41636;BME280;27623;51.966;4.602;2024-03-08T10:57:24;64280.38;;;10.88;61.49
41636;BME280;27623;51.966;4.602;2024-03-08T10:59:49;64279.69;;;10.78;61.97
41636;BME280;27623;51.966;4.602;2024-03-08T11:02:16;64339.47;;;11.17;61.34
41636;BME280;27623;51.966;4.602;2024-03-08T11:04:50;64296.59;;;10.87;60.12
41636;BME280;27623;51.966;4.602;2024-03-08T11:07:16;64361.50;;;11.19;61.20
41636;BME280;27623;51.966;4.602;2024-03-08T11:09:43;64303.03;;;11.21;60.28
41636;BME280;27623;51.966;4.602;2024-03-08T11:12:37;64340.94;;;11.16;60.67
41636;BME280;27623;51.966;4.602;2024-03-08T11:15:11;64350.88;;;11.42;60.15
41636;BME280;27623;51.966;4.602;2024-03-08T11:22:50;64426.28;;;12.08;58.69
41636;BME280;27623;51.966;4.602;2024-03-08T11:25:35;64425.31;;;12.23;57.19
41636;BME280;27623;51.966;4.602;2024-03-08T11:28:16;64441.88;;;12.34;56.00
41636;BME280;27623;51.966;4.602;2024-03-08T11:31:25;64465.41;;;12.34;56.18
41636;BME280;27623;51.966;4.602;2024-03-08T11:33:35;64486.50;;;12.52;56.44
41636;BME280;27623;51.966;4.602;2024-03-08T11:38:40;64514.81;;;12.92;54.63
41636;BME280;27623;51.966;4.602;2024-03-08T11:41:06;64519.25;;;12.82;54.95
41636;BME280;27623;51.966;4.602;2024-03-08T11:43:32;64537.78;;;13.06;53.45
41636;BME280;27623;51.966;4.602;2024-03-08T11:46:17;64599.97;;;13.40;53.25
41636;BME280;27623;51.966;4.602;2024-03-08T11:48:44;64583.50;;;13.39;51.53
41636;BME280;27623;51.966;4.602;2024-03-08T11:51:15;64484.94;;;12.74;52.07
41636;BME280;27623;51.966;4.602;2024-03-08T11:53:41;64495.53;;;12.72;51.84
41636;BME280;27623;51.966;4.602;2024-03-08T11:56:08;64499.69;;;12.88;50.74
41636;BME280;27623;51.966;4.602;2024-03-08T11:58:36;64462.84;;;12.34;52.95
41636;BME280;27623;51.966;4.602;2024-03-08T12:01:06;64515.91;;;12.93;52.86
41636;BME280;27623;51.966;4.602;2024-03-08T12:03:32;64584.31;;;13.21;52.90
41636;BME280;27623;51.966;4.602;2024-03-08T12:06:03;64586.53;;;13.54;52.52
41636;BME280;27623;51.966;4.602;2024-03-08T12:08:31;64634.94;;;13.66;52.57
41636;BME280;27623;51.966;4.602;2024-03-08T12:10:57;64627.81;;;13.66;50.46
41636;BME280;27623;51.966;4.602;2024-03-08T12:13:30;64595.53;;;13.51;51.40
41636;BME280;27623;51.966;4.602;2024-03-08T12:16:00;64576.50;;;13.50;50.43
41636;BME280;27623;51.966;4.602;2024-03-08T12:18:26;64577.53;;;13.27;50.52
41636;BME280;27623;51.966;4.602;2024-03-08T12:21:07;64547.56;;;13.30;51.02
41636;BME280;27623;51.966;4.602;2024-03-08T12:23:37;64588.41;;;13.44;51.81
41636;BME280;27623;51.966;4.602;2024-03-08T12:26:18;64689.63;;;14.09;51.37
41636;BME280;27623;51.966;4.602;2024-03-08T12:28:48;64703.44;;;14.63;49.42
41636;BME280;27623;51.966;4.602;2024-03-08T12:31:15;64637.31;;;14.01;49.64
41636;BME280;27623;51.966;4.602;2024-03-08T12:33:55;64614.03;;;13.75;50.05
41636;BME280;27623;51.966;4.602;2024-03-08T12:36:26;64698.81;;;14.39;50.22
41636;BME280;27623;51.966;4.602;2024-03-08T12:38:53;64747.69;;;14.80;47.76
41636;BME280;27623;51.966;4.602;2024-03-08T12:41:22;64673.00;;;14.06;48.40
41636;BME280;27623;51.966;4.602;2024-03-08T12:43:48;64563.97;;;13.31;49.00
41636;BME280;27623;51.966;4.602;2024-03-08T12:46:17;64614.25;;;13.70;50.13
41636;BME280;27623;51.966;4.602;2024-03-08T12:48:43;64682.13;;;14.12;51.27
41636;BME280;27623;51.966;4.602;2024-03-08T12:51:15;64681.50;;;14.26;48.98
41636;BME280;27623;51.966;4.602;2024-03-08T12:53:45;64666.59;;;14.02;48.25
41636;BME280;27623;51.966;4.602;2024-03-08T12:56:11;64643.44;;;14.17;47.52
41636;BME280;27623;51.966;4.602;2024-03-08T12:58:37;64638.50;;;14.19;47.54
41636;BME280;27623;51.966;4.602;2024-03-08T13:01:04;64681.03;;;14.42;49.56
41636;BME280;27623;51.966;4.602;2024-03-08T13:03:35;64794.69;;;15.00;49.11
41636;BME280;27623;51.966;4.602;2024-03-08T13:06:03;64657.00;;;13.82;48.57
41636;BME280;27623;51.966;4.602;2024-03-08T13:08:39;64697.97;;;14.58;49.19
41636;BME280;27623;51.966;4.602;2024-03-08T13:11:06;64757.00;;;14.89;47.47
41636;BME280;27623;51.966;4.602;2024-03-08T13:13:32;64850.03;;;15.68;46.48
41636;BME280;27623;51.966;4.602;2024-03-08T13:16:01;64759.19;;;14.91;46.25
41636;BME280;27623;51.966;4.602;2024-03-08T13:18:26;64722.75;;;14.83;46.10
41636;BME280;27623;51.966;4.602;2024-03-08T13:20:53;64718.88;;;14.56;46.75
41636;BME280;27623;51.966;4.602;2024-03-08T13:23:19;64708.78;;;14.58;46.99